Archival Weather

Chicago O'Hare International

Chicago, Illinois (KORD)

Report from: Wednesday, February 1, 2023 10:51 PM CST
Current time: Tuesday, June 18, 2024 6:46 AM CDT

Current weather – Weather history – Daily summaries
Weather forecast

Temperature-4.4°C (24.1°F)
Wind chill-10.5°C (13.1°F)
Dew point-11.1°C (12.0°F)
Winds 10 kts (5.1 m/s, 11.5 mph) Southwest (220°)
Wind gusts 18 kts (9.3 m/s, 20.7 mph)
Visibility10 mi. (16.1 km)
Clouds Few clouds 25,000 ft. (7,620 m)
Altimeter30.20 in.Hg (1023 mB)
Relative humidity59 %
Density altitude-2,710 ft. (-826 m)
Sea-level pressure102.4 kPa (1024 mB, 30.23 in.Hg)
Remarks Automated weather observing station with precipitation discriminator
Flight conditions Visual Meteorological Conditions
Raw dataKORD 020451Z 22010G18KT 10SM FEW250 M04/M11 A3020 RMK AO2 SLP238 T10441111
An error has occurred. This application may no longer respond until reloaded. Reload 🗙